Time;durP1;ratioP1;P1;durP2;ratioP2;P2;SDS_P1;SDS_P2;PMS_P1;PMS_P2;Temp;Humidity;BMP_temperature;BMP_pressure;BME280_temperature;BME280_humidity;BME280_pressure;Samples;Min_cycle;Max_cycle;Signal;HPM_P1;HPM_P2
2022/09/08 00:02:22;;;;;;;10.30;4.53;;;;;;;16.19;100.00;99852.22;5053208;28;20039;-70
2022/09/08 00:04:47;;;;;;;10.10;4.28;;;;;;;16.23;100.00;99851.84;5054126;28;20371;-71
2022/09/08 00:07:12;;;;;;;8.20;3.58;;;;;;;16.18;100.00;99838.16;5053159;28;20029;-70
2022/09/08 00:09:38;;;;;;;5.80;3.33;;;;;;;16.16;100.00;99834.75;5053124;28;20057;-70
2022/09/08 00:12:03;;;;;;;8.95;3.92;;;;;;;16.17;100.00;99838.25;5053521;28;20025;-70
2022/09/08 00:14:31;;;;;;;10.52;3.72;;;;;;;16.17;100.00;99832.97;5053208;28;20033;-70
2022/09/08 00:16:56;;;;;;;9.48;2.95;;;;;;;16.13;100.00;99831.53;5041867;28;20061;-70
2022/09/08 00:19:22;;;;;;;9.10;3.28;;;;;;;16.18;100.00;99846.09;5047171;28;20056;-70
2022/09/08 00:21:47;;;;;;;10.30;3.38;;;;;;;16.18;100.00;99846.09;5052780;28;20021;-70
2022/09/08 00:24:12;;;;;;;11.05;4.45;;;;;;;16.15;100.00;99833.09;5047825;28;20116;-70
2022/09/08 00:26:38;;;;;;;6.63;3.03;;;;;;;16.12;100.00;99828.03;5050142;28;20025;-70
2022/09/08 00:29:03;;;;;;;5.15;3.20;;;;;;;16.09;100.00;99819.47;5053153;28;20066;-70
2022/09/08 00:31:29;;;;;;;6.20;2.92;;;;;;;16.11;100.00;99829.00;5050347;28;20399;-70
2022/09/08 00:33:54;;;;;;;11.20;4.00;;;;;;;16.06;100.00;99804.69;5055251;28;20021;-71
2022/09/08 00:36:19;;;;;;;6.93;4.15;;;;;;;16.02;100.00;99808.53;5053232;28;20542;-71
2022/09/08 00:38:52;;;;;;;7.10;3.85;;;;;;;15.94;100.00;99803.06;5050262;28;20056;-71
2022/09/08 00:41:21;;;;;;;8.52;4.22;;;;;;;16.01;100.00;99817.47;5055622;28;20028;-71
2022/09/08 00:43:49;;;;;;;6.90;3.40;;;;;;;16.02;100.00;99803.25;5052412;28;20087;-70
2022/09/08 00:46:24;;;;;;;8.95;3.17;;;;;;;16.00;100.00;99794.59;5051518;28;20021;-70
2022/09/08 00:49:11;;;;;;;9.48;4.07;;;;;;;15.94;100.00;99771.25;5049345;28;20032;-70
2022/09/08 00:51:43;;;;;;;7.88;3.20;;;;;;;15.92;100.00;99781.13;5051539;28;20024;-71
2022/09/08 00:54:13;;;;;;;5.45;2.55;;;;;;;15.91;100.00;99778.59;5051508;28;20120;-71
2022/09/08 00:56:39;;;;;;;4.65;2.78;;;;;;;15.88;100.00;99795.59;5038635;28;20037;-71
2022/09/08 00:59:05;;;;;;;7.43;2.65;;;;;;;15.88;100.00;99784.16;5050977;28;20021;-70
2022/09/08 01:01:32;;;;;;;5.38;2.88;;;;;;;15.81;100.00;99789.13;5044759;28;20029;-71
2022/09/08 01:03:58;;;;;;;8.40;3.00;;;;;;;15.77;100.00;99787.69;5052744;28;20025;-72
2022/09/08 01:14:55;;;;;;;5.45;2.72;;;;;;;15.67;100.00;99781.44;5047193;28;20568;-71
2022/09/08 01:17:26;;;;;;;5.28;2.13;;;;;;;15.74;100.00;99793.22;5052420;28;20559;-71
2022/09/08 01:19:53;;;;;;;4.47;2.40;;;;;;;15.66;100.00;99790.34;5046316;28;20025;-70
2022/09/08 01:22:18;;;;;;;8.63;1.83;;;;;;;15.78;100.00;99799.97;5057082;28;20086;-70
2022/09/08 01:24:46;;;;;;;10.27;3.20;;;;;;;15.79;100.00;99806.94;5033763;28;20037;-71
2022/09/08 01:27:21;;;;;;;5.32;2.10;;;;;;;15.80;100.00;99803.31;5056999;28;20036;-70
2022/09/08 01:29:48;;;;;;;11.85;2.72;;;;;;;15.79;100.00;99812.22;5052215;28;20021;-70
2022/09/08 01:32:14;;;;;;;3.80;2.15;;;;;;;15.81;100.00;99811.16;5051287;28;20033;-70
2022/09/08 01:34:41;;;;;;;9.40;2.90;;;;;;;15.83;100.00;99816.31;5038738;28;20059;-70
2022/09/08 01:37:07;;;;;;;5.03;2.40;;;;;;;15.79;100.00;99806.94;5051398;28;20041;-71
2022/09/08 01:39:32;;;;;;;6.97;2.42;;;;;;;15.72;100.00;99801.28;5046885;28;20866;-71
2022/09/08 01:41:58;;;;;;;5.65;3.03;;;;;;;15.74;100.00;99812.63;5050690;28;20071;-70
2022/09/08 01:44:24;;;;;;;4.82;2.40;;;;;;;15.74;100.00;99814.44;5049485;28;20033;-69
2022/09/08 01:46:50;;;;;;;13.13;4.38;;;;;;;15.72;100.00;99808.38;5045796;28;20416;-70
2022/09/08 01:49:15;;;;;;;7.45;3.53;;;;;;;15.73;100.00;99825.97;5060282;28;20035;-70
2022/09/08 01:51:40;;;;;;;8.48;3.83;;;;;;;15.72;100.00;99821.63;5043419;28;20466;-70
2022/09/08 01:54:06;;;;;;;10.60;3.63;;;;;;;15.72;100.00;99835.72;5063228;28;20121;-69
2022/09/08 01:56:32;;;;;;;6.45;3.28;;;;;;;15.72;100.00;99842.81;5052462;28;20460;-70
2022/09/08 01:58:57;;;;;;;8.57;4.32;;;;;;;15.46;100.00;99793.72;5051129;28;20515;-70
2022/09/08 02:01:23;;;;;;;7.28;3.90;;;;;;;15.70;100.00;99826.22;5051571;28;20072;-69
2022/09/08 02:03:48;;;;;;;11.27;4.40;;;;;;;15.66;100.00;99803.59;5052780;28;20040;-70
2022/09/08 02:06:14;;;;;;;9.27;3.80;;;;;;;15.56;100.00;99795.56;5051788;28;20068;-72
2022/09/08 02:08:39;;;;;;;8.25;4.40;;;;;;;15.48;100.00;99782.06;5057031;28;20693;-72
2022/09/08 02:11:05;;;;;;;8.95;4.10;;;;;;;15.29;100.00;99761.50;5058899;28;20107;-72
2022/09/08 02:13:31;;;;;;;8.63;4.03;;;;;;;15.46;100.00;99783.13;5050443;28;20051;-72
2022/09/08 02:16:06;;;;;;;6.55;3.28;;;;;;;15.43;100.00;99788.69;5049734;28;20048;-72
2022/09/08 02:18:31;;;;;;;13.52;3.97;;;;;;;15.38;100.00;99785.56;5049293;28;20040;-72
2022/09/08 02:21:09;;;;;;;9.73;3.58;;;;;;;15.38;100.00;99790.88;5051422;28;20029;-72
2022/09/08 02:23:35;;;;;;;8.30;4.55;;;;;;;15.28;100.00;99773.03;5059081;28;20032;-73
2022/09/08 02:26:01;;;;;;;8.27;4.10;;;;;;;15.23;100.00;99769.94;5048397;28;20099;-72
2022/09/08 02:28:27;;;;;;;7.50;3.45;;;;;;;15.22;100.00;99770.91;5050564;28;20028;-72
2022/09/08 02:30:56;;;;;;;8.38;4.53;;;;;;;15.42;100.00;99792.28;5051613;28;20457;-71
2022/09/08 02:33:22;;;;;;;9.32;4.03;;;;;;;15.42;100.00;99792.28;5037034;28;20025;-72
2022/09/08 02:35:47;;;;;;;8.77;4.57;;;;;;;15.41;100.00;99801.22;5040280;28;20044;-72
2022/09/08 02:38:12;;;;;;;9.80;3.95;;;;;;;15.41;100.00;99801.22;5047891;28;20427;-72
2022/09/08 02:40:38;;;;;;;14.48;4.32;;;;;;;15.41;100.00;99801.22;5041000;28;20037;-72
2022/09/08 02:43:04;;;;;;;8.73;3.95;;;;;;;15.41;100.00;99790.63;5031643;28;20041;-71
2022/09/08 02:45:29;;;;;;;9.43;4.00;;;;;;;15.46;100.00;99783.97;5048095;28;20071;-72
2022/09/08 02:47:54;;;;;;;10.05;4.13;;;;;;;15.44;100.00;99774.47;5049948;28;20021;-72
2022/09/08 02:50:20;;;;;;;10.23;4.28;;;;;;;15.40;100.00;99771.25;5050918;28;20027;-71
2022/09/08 02:52:45;;;;;;;9.65;4.47;;;;;;;15.38;100.00;99769.69;5050358;28;20056;-70
2022/09/08 02:55:11;;;;;;;8.95;3.75;;;;;;;15.34;100.00;99764.59;5049054;28;20076;-71
2022/09/08 02:57:36;;;;;;;9.30;3.95;;;;;;;15.34;100.00;99761.97;5048538;28;20033;-71
2022/09/08 03:00:03;;;;;;;8.60;4.78;;;;;;;15.35;100.00;99765.47;5066747;28;20097;-72
2022/09/08 03:02:28;;;;;;;9.93;4.85;;;;;;;15.29;100.00;99758.84;5057877;28;20143;-72
2022/09/08 03:04:54;;;;;;;8.50;3.70;;;;;;;15.28;100.00;99759.81;5053544;28;20103;-71
2022/09/08 03:07:19;;;;;;;8.93;4.65;;;;;;;15.29;100.00;99771.25;5060873;28;20025;-71
2022/09/08 03:09:45;;;;;;;6.07;3.95;;;;;;;15.08;100.00;99741.19;5034790;28;20065;-72
2022/09/08 03:12:12;;;;;;;8.82;4.47;;;;;;;15.29;100.00;99777.38;5035169;28;20096;-72
2022/09/08 03:14:37;;;;;;;7.38;4.30;;;;;;;15.30;100.00;99768.50;5036091;28;20044;-73
2022/09/08 03:17:03;;;;;;;8.20;4.38;;;;;;;15.29;100.00;99765.94;5049134;28;20374;-72
2022/09/08 03:19:28;;;;;;;7.32;4.63;;;;;;;15.28;100.00;99759.81;5051834;28;20394;-74
2022/09/08 03:21:54;;;;;;;11.82;4.65;;;;;;;15.32;100.00;99763.06;5061092;28;20047;-73
2022/09/08 03:24:19;;;;;;;12.10;5.38;;;;;;;15.30;100.00;99767.66;5054835;28;20037;-73
2022/09/08 03:26:45;;;;;;;8.75;4.80;;;;;;;15.31;100.00;99769.31;5041824;28;20040;-74
2022/09/08 03:29:11;;;;;;;11.50;5.30;;;;;;;15.24;100.00;99762.84;5049301;28;20467;-74
2022/09/08 03:31:36;;;;;;;15.02;5.65;;;;;;;15.37;100.00;99790.03;5049186;28;20061;-74
2022/09/08 03:34:02;;;;;;;10.90;5.63;;;;;;;15.27;100.00;99774.03;5039410;28;20541;-74
2022/09/08 03:36:27;;;;;;;9.38;5.35;;;;;;;15.12;100.00;99753.22;5033804;28;20033;-75
2022/09/08 03:38:54;;;;;;;12.77;5.70;;;;;;;15.40;100.00;99784.47;5064910;28;20111;-75
2022/09/08 03:41:19;;;;;;;9.23;5.28;;;;;;;15.35;100.00;99776.91;5067419;28;20054;-75
2022/09/08 03:43:46;;;;;;;14.15;6.20;;;;;;;15.44;100.00;99785.94;5050117;28;20475;-75
2022/09/08 03:46:13;;;;;;;9.95;5.53;;;;;;;15.41;100.00;99788.78;5050304;28;20120;-74
2022/09/08 03:48:39;;;;;;;9.98;5.15;;;;;;;15.43;100.00;99799.28;5048356;28;20040;-73
2022/09/08 03:51:18;;;;;;;7.05;4.63;;;;;;;15.40;100.00;99795.06;5049497;28;20037;-74
2022/09/08 03:53:44;;;;;;;12.90;5.63;;;;;;;15.40;100.00;99799.53;5048827;28;20044;-74
2022/09/08 03:56:10;;;;;;;9.25;5.43;;;;;;;15.30;100.00;99794.13;5048007;28;20058;-74
2022/09/08 03:58:37;;;;;;;10.85;6.00;;;;;;;15.36;100.00;99809.50;5047195;28;20104;-75
2022/09/08 04:01:07;;;;;;;10.63;6.05;;;;;;;15.32;100.00;99808.06;5049650;28;20033;-75
2022/09/08 04:03:32;;;;;;;10.18;5.97;;;;;;;15.23;100.00;99799.06;5049160;28;20032;-72
2022/09/08 04:05:58;;;;;;;14.35;6.93;;;;;;;15.25;100.00;99797.13;5048296;28;20487;-73
2022/09/08 04:08:24;;;;;;;11.55;6.78;;;;;;;15.20;100.00;99788.72;5047498;28;20390;-73
2022/09/08 04:10:49;;;;;;;10.98;6.53;;;;;;;15.24;100.00;99792.78;5048659;28;20040;-73
2022/09/08 04:13:14;;;;;;;10.43;6.93;;;;;;;15.25;100.00;99791.81;5049518;28;20017;-73
2022/09/08 04:15:40;;;;;;;14.15;8.38;;;;;;;15.32;100.00;99803.63;5049842;28;20379;-73
2022/09/08 04:18:05;;;;;;;20.70;9.40;;;;;;;15.22;100.00;99792.06;5049940;28;20167;-74
2022/09/08 04:20:30;;;;;;;19.38;8.75;;;;;;;15.23;100.00;99793.75;5050433;28;20036;-74
2022/09/08 04:22:56;;;;;;;29.48;11.15;;;;;;;15.28;100.00;99796.03;5052632;28;20093;-73
2022/09/08 04:25:22;;;;;;;26.65;12.13;;;;;;;15.23;100.00;99788.47;5033653;28;20129;-73
2022/09/08 04:27:48;;;;;;;22.63;10.98;;;;;;;14.68;100.00;99703.81;5082660;28;20497;-73
2022/09/08 04:30:14;;;;;;;23.48;10.20;;;;;;;15.28;100.00;99802.16;5036194;28;20025;-73
2022/09/08 04:32:39;;;;;;;23.25;10.93;;;;;;;15.28;100.00;99802.16;5057287;28;20110;-73
2022/09/08 04:35:06;;;;;;;17.92;10.07;;;;;;;15.25;100.00;99791.81;5040684;28;20424;-74
2022/09/08 04:37:31;;;;;;;12.60;10.43;;;;;;;15.28;100.00;99802.16;5054432;28;20052;-73
2022/09/08 04:39:56;;;;;;;13.32;10.68;;;;;;;15.29;100.00;99798.56;5055788;28;20455;-73
2022/09/08 04:42:23;;;;;;;18.95;11.20;;;;;;;15.31;100.00;99801.91;5069066;28;20025;-74
2022/09/08 04:44:49;;;;;;;15.75;10.88;;;;;;;15.31;100.00;99801.91;5059592;28;20529;-74
2022/09/08 04:47:14;;;;;;;12.95;10.32;;;;;;;15.32;100.00;99803.63;5052992;28;20041;-74
2022/09/08 04:49:39;;;;;;;20.20;10.77;;;;;;;15.24;100.00;99778.72;5052529;28;20032;-74
2022/09/08 04:52:05;;;;;;;24.63;10.60;;;;;;;15.23;100.00;99788.47;5057352;28;20433;-74
2022/09/08 04:54:30;;;;;;;16.63;9.73;;;;;;;15.25;100.00;99786.53;5064768;28;20061;-73
2022/09/08 04:56:55;;;;;;;11.18;8.82;;;;;;;15.20;100.00;99786.06;5069320;28;20028;-73
2022/09/08 04:59:21;;;;;;;17.25;9.70;;;;;;;15.22;100.00;99801.81;5063915;28;20025;-74
2022/09/08 05:01:47;;;;;;;15.57;9.07;;;;;;;15.24;100.00;99797.25;5065865;28;20043;-74
2022/09/08 05:04:12;;;;;;;16.67;9.45;;;;;;;15.21;100.00;99798.31;5066685;28;20028;-73
2022/09/08 05:06:38;;;;;;;12.38;9.13;;;;;;;14.92;100.00;99746.84;5054163;28;20107;-74
2022/09/08 05:09:04;;;;;;;9.43;7.60;;;;;;;15.21;100.00;99803.59;5051700;28;20514;-73
2022/09/08 05:11:31;;;;;;;14.75;9.70;;;;;;;14.97;100.00;99749.97;5058654;28;20497;-75
2022/09/08 05:13:57;;;;;;;15.07;10.63;;;;;;;15.17;100.00;99788.13;5051653;28;20467;-75
2022/09/08 05:16:24;;;;;;;12.38;9.63;;;;;;;15.19;100.00;99802.91;5050038;28;20096;-75
2022/09/08 05:18:55;;;;;;;15.50;9.13;;;;;;;15.12;100.00;99791.09;5050751;28;20063;-75
2022/09/08 05:21:21;;;;;;;15.38;9.55;;;;;;;15.18;100.00;99800.34;5066355;28;20052;-74
2022/09/08 05:23:50;;;;;;;14.63;9.77;;;;;;;15.19;100.00;99810.84;5051601;28;20052;-75
2022/09/08 05:26:17;;;;;;;23.38;10.32;;;;;;;15.18;100.00;99806.50;5051640;28;20140;-78
2022/09/08 05:28:43;;;;;;;14.80;9.85;;;;;;;15.16;100.00;99808.44;5051302;28;20483;-77
2022/09/08 05:31:15;;;;;;;13.20;9.27;;;;;;;15.16;100.00;99802.28;5056621;28;20016;-77
2022/09/08 05:33:40;;;;;;;16.17;9.30;;;;;;;15.09;100.00;99791.34;5057126;28;20029;-76
2022/09/08 05:36:12;;;;;;;17.00;9.27;;;;;;;15.11;100.00;99794.72;5052685;28;20036;-76
2022/09/08 05:38:37;;;;;;;13.00;8.25;;;;;;;15.09;100.00;99790.50;5035527;28;20119;-76
2022/09/08 05:41:03;;;;;;;16.05;8.90;;;;;;;15.12;100.00;99785.81;5046808;28;20053;-76
2022/09/08 05:43:28;;;;;;;12.10;8.27;;;;;;;15.18;100.00;99806.50;5047913;28;20116;-75
2022/09/08 05:45:54;;;;;;;11.40;7.90;;;;;;;15.11;100.00;99801.81;5048675;28;20044;-75
2022/09/08 05:48:19;;;;;;;13.45;7.65;;;;;;;15.17;100.00;99815.44;5047923;28;20049;-75
2022/09/08 05:50:45;;;;;;;12.98;8.88;;;;;;;15.12;100.00;99809.63;5046476;28;20036;-76
2022/09/08 05:53:12;;;;;;;13.07;7.90;;;;;;;15.12;100.00;99817.56;5052691;28;20025;-76
2022/09/08 05:55:37;;;;;;;12.88;7.78;;;;;;;14.92;100.00;99775.94;5051216;28;20480;-76
2022/09/08 05:58:03;;;;;;;9.65;7.65;;;;;;;15.15;100.00;99822.63;5027860;28;20040;-75
2022/09/08 06:00:28;;;;;;;15.85;8.85;;;;;;;15.17;100.00;99810.13;5063864;28;20027;-75
2022/09/08 06:02:54;;;;;;;11.93;7.85;;;;;;;15.20;100.00;99799.31;5057068;28;20036;-75
2022/09/08 06:05:20;;;;;;;11.95;7.80;;;;;;;15.14;100.00;99793.66;5058691;28;20028;-75
2022/09/08 06:07:46;;;;;;;14.95;8.75;;;;;;;15.28;100.00;99820.69;5048383;28;20120;-75
2022/09/08 06:10:12;;;;;;;14.82;7.53;;;;;;;15.29;100.00;99811.78;5033075;28;20025;-75
2022/09/08 06:12:38;;;;;;;14.07;7.20;;;;;;;15.31;100.00;99817.81;5031735;28;20959;-76
2022/09/08 06:15:04;;;;;;;11.45;7.53;;;;;;;15.29;100.00;99809.16;5007438;28;20517;-76
2022/09/08 06:17:31;;;;;;;15.82;8.45;;;;;;;15.32;100.00;99818.66;5015663;28;20024;-76
2022/09/08 06:19:56;;;;;;;18.60;8.38;;;;;;;15.21;100.00;99800.13;5010948;28;20090;-76
2022/09/08 06:22:22;;;;;;;12.15;8.32;;;;;;;15.35;100.00;99821.91;5011529;28;20030;-67
2022/09/08 06:24:48;;;;;;;12.90;8.10;;;;;;;15.39;100.00;99824.31;5008921;28;20862;-75
2022/09/08 06:27:22;;;;;;;20.20;10.35;;;;;;;15.43;100.00;99825.75;5017009;28;20025;-75
2022/09/08 06:30:01;;;;;;;14.68;11.60;;;;;;;15.45;100.00;99829.09;5010838;28;20561;-74
2022/09/08 06:32:27;;;;;;;14.32;10.88;;;;;;;15.49;100.00;99835.88;5049311;28;20079;-76
2022/09/08 06:35:16;;;;;;;15.43;10.05;;;;;;;15.46;100.00;99814.91;5043760;28;20041;-76
2022/09/08 06:37:56;;;;;;;16.17;11.38;;;;;;;15.52;100.00;99831.19;5038175;28;20102;-75
2022/09/08 06:40:28;;;;;;;16.65;12.10;;;;;;;15.53;100.00;99826.72;5044444;28;20029;-75
2022/09/08 06:43:18;;;;;;;15.52;10.07;;;;;;;15.62;100.00;99836.59;5038722;28;20032;-75
2022/09/08 06:45:45;;;;;;;16.77;10.38;;;;;;;15.67;100.00;99837.06;5036804;28;20080;-75
2022/09/08 06:48:10;;;;;;;16.95;11.15;;;;;;;15.73;100.00;99836.56;5042865;28;20064;-75
2022/09/08 06:50:40;;;;;;;14.43;11.20;;;;;;;15.78;100.00;99839.72;5057676;28;20128;-75
2022/09/08 06:53:11;;;;;;;17.25;11.68;;;;;;;15.82;100.00;99838.47;5042275;28;20033;-75
2022/09/08 06:55:45;;;;;;;16.35;11.05;;;;;;;15.74;100.00;99825.03;5044069;28;20094;-75
2022/09/08 06:58:29;;;;;;;13.13;10.75;;;;;;;15.65;100.00;99809.84;5043747;28;20072;-74
2022/09/08 07:01:00;;;;;;;12.55;10.15;;;;;;;15.82;100.00;99838.47;5046614;28;20037;-74
2022/09/08 07:03:37;;;;;;;14.75;10.05;;;;;;;15.86;100.00;99837.25;5047379;28;20037;-74
2022/09/08 07:06:07;;;;;;;11.48;9.73;;;;;;;15.72;100.00;99816.34;5045550;28;20561;-75
2022/09/08 07:08:38;;;;;;;18.88;9.48;;;;;;;15.93;100.00;99840.25;5039938;28;20152;-75
2022/09/08 07:11:28;;;;;;;15.05;9.50;;;;;;;15.92;100.00;99836.75;5038893;28;20029;-75
2022/09/08 07:14:01;;;;;;;11.30;9.10;;;;;;;15.93;100.00;99825.22;5044777;28;20089;-76
2022/09/08 07:16:40;;;;;;;17.17;8.98;;;;;;;16.06;100.00;99841.78;5049497;28;20035;-74
2022/09/08 07:19:14;;;;;;;12.82;7.32;;;;;;;15.99;100.00;99830.00;5027185;28;20095;-74
2022/09/08 07:22:03;;;;;;;8.43;6.60;;;;;;;16.14;100.00;99844.66;5030486;28;20047;-74
2022/09/08 07:24:36;;;;;;;9.57;6.78;;;;;;;16.07;100.00;99838.19;5042662;28;20398;-75
2022/09/08 07:27:04;;;;;;;8.80;6.72;;;;;;;16.13;100.00;99842.97;5022847;28;20605;-75
2022/09/08 07:29:34;;;;;;;11.55;6.32;;;;;;;16.22;100.00;99847.50;5043158;28;20063;-74
2022/09/08 07:32:00;;;;;;;10.35;5.97;;;;;;;16.13;100.00;99840.31;5032215;28;20029;-74
2022/09/08 07:34:31;;;;;;;11.18;5.30;;;;;;;16.18;100.00;99856.72;5024478;28;20480;-75
2022/09/08 07:37:21;;;;;;;13.60;5.20;;;;;;;16.21;100.00;99856.44;5045757;28;20021;-75
2022/09/08 07:39:55;;;;;;;12.80;4.88;;;;;;;15.94;100.00;99800.41;5044204;28;20139;-75
2022/09/08 07:42:20;;;;;;;12.25;4.72;;;;;;;16.00;100.00;99821.09;5050830;28;20036;-74
2022/09/08 07:44:48;;;;;;;7.60;4.47;;;;;;;16.21;100.00;99845.00;5038672;28;20418;-74
2022/09/08 07:47:29;;;;;;;10.55;4.38;;;;;;;16.00;100.00;99831.69;5017767;28;20403;-74
2022/09/08 07:50:13;;;;;;;6.32;4.38;;;;;;;15.96;100.00;99832.06;5042189;28;20442;-73
2022/09/08 07:52:47;;;;;;;8.87;4.80;;;;;;;16.08;100.00;99850.47;5055592;28;20076;-75
2022/09/08 07:55:17;;;;;;;5.93;4.40;;;;;;;16.15;100.00;99853.47;5054238;28;20028;-75
2022/09/08 07:58:05;;;;;;;8.00;4.28;;;;;;;16.22;100.00;99857.28;5046179;28;20561;-75
2022/09/08 08:00:39;;;;;;;6.15;4.28;;;;;;;16.25;100.00;99857.88;5051641;28;20029;-75
2022/09/08 08:03:09;;;;;;;5.60;3.80;;;;;;;16.22;100.00;99863.41;5059161;28;20051;-74
2022/09/08 08:06:00;;;;;;;7.68;3.75;;;;;;;16.12;100.00;99862.47;5043955;28;20029;-74
2022/09/08 08:08:42;;;;;;;6.60;4.15;;;;;;;16.13;100.00;99864.19;5044117;28;20047;-73
2022/09/08 08:11:20;;;;;;;11.43;5.03;;;;;;;16.18;100.00;99867.31;5044537;28;20480;-73
2022/09/08 08:14:08;;;;;;;10.10;3.97;;;;;;;16.30;100.00;99866.28;5036490;28;20087;-72
2022/09/08 08:17:11;;;;;;;10.07;4.43;;;;;;;16.42;100.00;99868.91;5056675;28;20488;-72
2022/09/08 08:20:07;;;;;;;9.63;3.45;;;;;;;16.41;100.00;99875.16;5059835;28;20036;-73
2022/09/08 08:22:41;;;;;;;9.73;3.58;;;;;;;16.41;100.00;99867.22;5038833;28;20032;-74
2022/09/08 08:25:21;;;;;;;12.57;3.65;;;;;;;16.43;100.00;99870.56;5042684;28;20033;-73
2022/09/08 08:28:03;;;;;;;4.18;3.10;;;;;;;16.46;100.00;99875.66;5046631;28;20072;-74
2022/09/08 08:30:28;;;;;;;7.63;2.92;;;;;;;16.49;100.00;99873.59;5046134;28;20028;-72
2022/09/08 08:32:53;;;;;;;7.15;3.35;;;;;;;16.52;100.00;99869.81;5045505;28;20029;-73
2022/09/08 08:35:39;;;;;;;7.85;3.28;;;;;;;16.53;100.00;99859.06;5054343;28;20040;-72
2022/09/08 08:38:05;;;;;;;7.32;2.83;;;;;;;16.62;100.00;99865.47;5044884;28;20082;-72
2022/09/08 08:40:43;;;;;;;5.90;2.65;;;;;;;16.71;100.00;99867.34;5038561;28;20025;-72
2022/09/08 08:43:14;;;;;;;6.72;2.50;;;;;;;16.79;100.00;99859.59;5046135;28;20046;-72
2022/09/08 08:46:14;;;;;;;6.18;2.28;;;;;;;16.71;100.00;99843.47;5031669;28;20025;-74
2022/09/08 08:49:01;;;;;;;7.82;2.00;;;;;;;16.96;100.00;99850.19;5040894;28;20037;-73
2022/09/08 08:51:54;;;;;;;7.55;2.63;;;;;;;17.04;100.00;99845.91;5035094;28;20459;-72
2022/09/08 08:54:43;;;;;;;4.55;2.05;;;;;;;17.15;100.00;99852.94;5042411;28;20063;-71
2022/09/08 08:57:36;;;;;;;4.88;1.52;;;;;;;17.13;100.00;99858.41;5044030;28;20032;-71
2022/09/08 09:00:07;;;;;;;9.90;1.95;;;;;;;17.00;100.00;99852.44;5024156;28;20886;-70
2022/09/08 09:02:35;;;;;;;4.05;1.45;;;;;;;16.98;100.00;99859.72;5025853;28;20030;-71
2022/09/08 09:05:22;;;;;;;4.47;1.55;;;;;;;17.01;100.00;99846.16;5046179;28;20155;-70
2022/09/08 09:08:21;;;;;;;5.63;1.70;;;;;;;17.00;100.00;99839.16;5044902;28;20036;-70
2022/09/08 09:11:21;;;;;;;3.38;1.27;;;;;;;17.05;100.00;99841.44;5046188;28;20110;-71
2022/09/08 09:13:52;;;;;;;3.90;1.27;;;;;;;17.17;100.00;99840.38;5034259;28;20717;-72
2022/09/08 09:16:46;;;;;;;3.65;1.48;;;;;;;17.23;100.00;99819.47;5045402;28;20051;-68
2022/09/08 09:19:35;;;;;;;4.38;1.45;;;;;;;17.54;100.00;99848.66;5036475;28;20052;-70
2022/09/08 09:22:06;;;;;;;5.28;1.58;;;;;;;17.65;100.00;99845.91;5047200;28;20057;-70
2022/09/08 09:24:53;;;;;;;5.15;1.80;;;;;;;17.64;100.00;99844.25;5041005;28;20111;-70
2022/09/08 09:27:30;;;;;;;5.50;2.10;;;;;;;17.60;100.00;99848.16;5032555;28;20036;-70
2022/09/08 09:30:12;;;;;;;3.13;1.33;;;;;;;17.64;100.00;99837.09;5047444;28;20033;-71
2022/09/08 09:32:53;;;;;;;2.83;1.42;;;;;;;17.72;100.00;99852.38;5036418;28;20152;-71
2022/09/08 09:35:44;;;;;;;3.65;1.42;;;;;;;17.63;100.00;99839.91;5042973;28;20041;-70
2022/09/08 09:38:46;;;;;;;4.30;1.48;;;;;;;17.66;100.00;99858.22;5043340;28;20502;-70
2022/09/08 09:41:20;;;;;;;4.93;1.80;;;;;;;17.64;100.00;99865.50;5040955;28;20030;-70
2022/09/08 09:43:57;;;;;;;;;;;;;;;17.44;100.00;99832.66;5041814;28;20059;-69
2022/09/08 09:47:01;;;;;;;3.35;1.40;;;;;;;17.60;100.00;99872.06;5045638;28;19936;-70
2022/09/08 09:50:05;;;;;;;4.05;1.00;;;;;;;17.60;100.00;99869.41;5042695;28;20048;-70
2022/09/08 09:52:37;;;;;;;5.72;1.30;;;;;;;17.71;100.00;99866.66;5042573;28;20098;-70
2022/09/08 09:55:15;;;;;;;5.82;1.27;;;;;;;17.72;100.00;99863.00;5043296;28;20472;-71
2022/09/08 09:57:52;;;;;;;2.58;1.10;;;;;;;17.77;100.00;99871.44;5043386;28;20041;-71
2022/09/08 10:00:24;;;;;;;4.60;1.70;;;;;;;17.81;100.00;99860.38;5043869;28;20108;-69
2022/09/08 10:02:58;;;;;;;7.43;1.50;;;;;;;17.87;100.00;99859.00;5043421;28;20036;-70
2022/09/08 10:05:30;;;;;;;;;;;;;;;17.87;100.00;99861.66;5047778;28;20061;-71
2022/09/08 10:08:09;;;;;;;3.30;1.20;;;;;;;17.91;100.00;99865.72;5046811;28;19913;-72
2022/09/08 10:10:55;;;;;;;5.03;1.58;;;;;;;17.98;100.00;99869.50;5047500;28;20037;-70
2022/09/08 10:13:38;;;;;;;4.70;1.63;;;;;;;18.07;100.00;99873.16;5045092;28;20864;-72
2022/09/08 10:16:28;;;;;;;4.45;1.67;;;;;;;18.34;100.00;99876.84;5045262;28;20273;-72
2022/09/08 10:19:02;;;;;;;10.57;1.75;;;;;;;18.55;100.00;99867.94;5047661;28;20043;-71
2022/09/08 10:21:52;;;;;;;3.63;1.50;;;;;;;18.72;100.00;99865.38;5046629;28;20047;-72
2022/09/08 10:24:23;;;;;;;4.95;1.60;;;;;;;18.72;100.00;99867.22;5047024;28;20040;-72
2022/09/08 10:27:26;;;;;;;3.17;1.45;;;;;;;18.65;100.00;99869.59;5040028;28;20032;-71
2022/09/08 10:30:22;;;;;;;3.75;1.60;;;;;;;18.61;100.00;99870.03;5044177;28;20020;-72
2022/09/08 10:33:02;;;;;;;3.22;1.30;;;;;;;18.42;100.00;99832.75;5045347;28;20056;-72
2022/09/08 10:35:46;;;;;;;3.40;1.63;;;;;;;18.65;100.00;99858.97;5032085;28;20571;-72
2022/09/08 10:38:46;;;;;;;2.80;1.33;;;;;;;18.62;100.00;99863.72;5047967;28;20055;-71
2022/09/08 10:41:18;;;;;;;5.75;1.52;;;;;;;18.66;100.00;99870.41;5036338;28;20855;-72
2022/09/08 10:43:49;;;;;;;4.75;1.58;;;;;;;18.77;100.00;99867.63;5045441;28;20045;-71
2022/09/08 10:46:41;;;;;;;3.95;1.92;;;;;;;18.68;100.00;99863.16;5033711;28;20037;-73
2022/09/08 10:49:18;;;;;;;3.50;1.48;;;;;;;18.54;100.00;99855.59;5041327;28;20051;-72
2022/09/08 10:52:08;;;;;;;2.13;1.05;;;;;;;18.44;100.00;99865.38;5047444;28;20033;-72
2022/09/08 10:54:41;;;;;;;6.10;1.50;;;;;;;18.32;100.00;99857.50;5040602;28;20033;-73
2022/09/08 10:57:22;;;;;;;3.33;1.63;;;;;;;18.25;100.00;99855.56;5043183;28;20048;-72
2022/09/08 11:00:18;;;;;;;4.55;1.50;;;;;;;18.26;100.00;99858.06;5039377;28;20041;-72
2022/09/08 11:03:27;;;;;;;5.07;1.65;;;;;;;18.21;100.00;99849.69;5044711;28;20041;-72
2022/09/08 11:06:06;;;;;;;5.95;1.38;;;;;;;18.33;100.00;99858.34;5032507;28;20068;-72
2022/09/08 11:09:08;;;;;;;3.58;1.27;;;;;;;18.59;100.00;99859.50;5026580;28;20395;-71
2022/09/08 11:12:00;;;;;;;3.10;1.17;;;;;;;18.79;100.00;99852.38;5043573;28;20035;-72
2022/09/08 11:14:35;;;;;;;5.80;1.58;;;;;;;18.93;100.00;99846.56;5044760;28;20071;-73
2022/09/08 11:17:19;;;;;;;;;;;;;;;19.09;100.00;99846.81;5036977;28;20509;-72
2022/09/08 11:20:08;;;;;;;9.82;1.73;;;;;;;19.10;100.00;99831.66;5047871;28;19973;-73
2022/09/08 11:22:44;;;;;;;3.67;1.20;;;;;;;19.23;100.00;99826.88;5046485;28;20037;-73
2022/09/08 11:25:23;;;;;;;2.22;0.93;;;;;;;19.62;100.00;99848.88;5043452;28;20064;-72
2022/09/08 11:28:11;;;;;;;5.70;1.63;;;;;;;19.96;100.00;99831.28;5041518;28;20033;-72
2022/09/08 11:31:10;;;;;;;5.68;1.80;;;;;;;20.19;100.00;99847.69;5029948;28;20032;-72
2022/09/08 11:33:54;;;;;;;5.53;1.52;;;;;;;20.31;100.00;99839.34;5024331;28;20037;-72
2022/09/08 11:36:32;;;;;;;5.28;1.90;;;;;;;20.62;100.00;99838.94;5033159;28;20118;-73
2022/09/08 11:39:41;;;;;;;4.47;1.90;;;;;;;21.03;100.00;99827.56;5032678;28;20049;-73
2022/09/08 11:42:17;;;;;;;5.13;1.45;;;;;;;21.11;100.00;99832.16;5027603;28;20029;-73
2022/09/08 11:44:47;;;;;;;2.72;1.20;;;;;;;20.82;100.00;99835.09;5044282;28;20094;-73
2022/09/08 11:47:29;;;;;;;5.10;1.85;;;;;;;20.55;100.00;99837.91;5040886;28;20020;-73
2022/09/08 11:50:32;;;;;;;4.43;1.27;;;;;;;20.11;100.00;99837.78;5041152;28;20483;-73
2022/09/08 11:53:18;;;;;;;5.25;1.45;;;;;;;19.65;100.00;99828.09;5064933;28;20442;-74
2022/09/08 11:56:13;;;;;;;4.85;1.90;;;;;;;19.32;100.00;99834.81;5045044;28;20487;-73
2022/09/08 11:59:14;;;;;;;9.18;1.95;;;;;;;19.11;100.00;99828.03;5036553;28;20037;-74